Hlavní strana
METAR-TAF:

METAR-TAF

Letiště :

Kristiansund, Norsko

zeměpisná šířka: 63-07N, zeměpisná délka: 007-50E, výška: 6 m

Aktuální stav počasí

Zpráva byla vytvořena před 11 minutami, v 23:50 UTC
Východní vítr 4 kt, proměnlivý mezi severoseverovýchodním a východojihovýchodním
Teplota 4°C
Vlhkost vzduchu 87%
Tlak 1036 hPa
Viditelnost 10 km a více

METAR: ENKB 192350Z AUTO 08004KT 020V120 9999 OVC021/// 04/02 Q1036 RMK WIND 745FT 13006KT

Čas: 01:01 (00:01 UTC)

Předpověď počasí

Zpráva byla vytvořena před 7 hodinami a 1 minutami, v 17:00 UTC
Předpověď platná od 19 v 18 UTC do 19 v 22 UTC
Východní vítr 5 kt
Viditelnost 10 km a více
Skoro jasno ve výšce 500 ft
Oblačno až skoro zataženo ve výšce 2200 ft

TAF: ENKB 191700Z 1918/1922 09005KT 9999 FEW005 BKN022

Stav a předpovědi počasí z více než 4 000 letišť (zprávy METAR a TAF).

Červené a žluté tečky na mapě představují dostupné meteorologické stanice.

Když kurzor umístíte na tečku, zobrazí se název stanice.

Pak kliknutím zobrazíte stav a předpověď počasí.

Chcete-li změnit mapu, kliknutím na zelené tlačítko se znaménkem +mapu přiblížíte, kliknutím na zelené tlačítko se znaménkem – mapu oddálíte a kliknutím na zelené šipky přejdete na sousední mapy.


METAR-TAF: